createdAt,value
2022-12-04T00:04:59.327Z,62.33
2022-12-04T00:10:01.390Z,61.20
2022-12-04T00:20:25.326Z,63.50
2022-12-04T00:25:26.974Z,65.13
2022-12-04T00:30:28.638Z,62.80
2022-12-04T00:35:30.323Z,67.90
2022-12-04T00:40:32.027Z,69.95
2022-12-04T00:45:33.737Z,64.18
2022-12-04T00:50:36.132Z,70.82
2022-12-04T00:55:39.209Z,65.40
2022-12-04T01:00:43.193Z,68.55
2022-12-04T01:05:45.778Z,69.53
2022-12-04T01:10:47.489Z,69.45
2022-12-04T01:15:49.433Z,64.03
2022-12-04T01:20:52.592Z,62.03
2022-12-04T01:25:57.965Z,62.13
2022-12-04T01:31:09.051Z,71.28
2022-12-04T01:36:15.978Z,61.40
2022-12-04T01:41:24.236Z,63.05
2022-12-04T01:46:26.090Z,70.90
2022-12-04T01:51:33.971Z,67.93
2022-12-04T01:56:52.369Z,61.90
2022-12-04T02:02:02.398Z,69.15
2022-12-04T02:07:04.474Z,72.03
2022-12-04T02:12:16.991Z,67.28
2022-12-04T02:17:44.868Z,65.47
2022-12-04T02:23:10.655Z,73.85
2022-12-04T02:28:40.244Z,67.20
2022-12-04T02:33:49.416Z,71.82
2022-12-04T02:39:18.169Z,68.93
2022-12-04T02:44:30.413Z,72.28
2022-12-04T02:49:42.933Z,80.82
2022-12-04T02:54:50.387Z,72.18
2022-12-04T02:59:55.008Z,69.53
2022-12-04T03:04:58.845Z,77.18
2022-12-04T03:10:05.973Z,71.93
2022-12-04T03:15:17.692Z,79.10
2022-12-04T03:20:20.967Z,77.97
2022-12-04T03:25:32.068Z,80.72
2022-12-04T03:30:41.984Z,81.22
2022-12-04T03:36:11.875Z,72.75
2022-12-04T03:41:17.220Z,75.63
2022-12-04T03:46:32.173Z,71.20
2022-12-04T03:51:43.494Z,81.70
2022-12-04T03:56:52.829Z,76.70
2022-12-04T04:01:57.914Z,86.03
2022-12-04T04:07:07.368Z,79.30
2022-12-04T04:12:15.182Z,83.80
2022-12-04T04:17:39.208Z,79.95
2022-12-04T04:22:59.689Z,85.72
2022-12-04T04:28:01.367Z,87.00
2022-12-04T04:33:17.023Z,79.82
2022-12-04T04:38:33.967Z,83.82
2022-12-04T04:43:48.904Z,75.53
2022-12-04T04:48:58.712Z,88.50
2022-12-04T04:54:05.546Z,77.60
2022-12-04T04:59:07.341Z,72.65
2022-12-04T05:04:10.131Z,91.18
2022-12-04T05:09:11.805Z,87.13
2022-12-04T05:14:13.525Z,85.53
2022-12-04T05:19:33.697Z,88.60
2022-12-04T05:24:35.437Z,89.50
2022-12-04T05:29:37.177Z,92.00
2022-12-04T05:34:39.201Z,96.03
2022-12-04T05:39:40.911Z,94.22
2022-12-04T05:44:42.596Z,86.38
2022-12-04T05:49:44.433Z,86.22
2022-12-04T05:54:46.143Z,85.07
2022-12-04T05:59:47.927Z,91.70
2022-12-04T06:04:49.637Z,86.03
2022-12-04T06:09:51.314Z,87.00
2022-12-04T06:14:53.057Z,83.30
2022-12-04T06:19:56.125Z,83.38
2022-12-04T06:24:58.129Z,87.03
2022-12-04T06:30:00.184Z,87.82
2022-12-04T06:35:01.937Z,85.57
2022-12-04T06:40:04.130Z,101.22
2022-12-04T06:45:06.640Z,94.13
2022-12-04T06:50:08.803Z,94.25
2022-12-04T06:55:10.526Z,94.32
2022-12-04T07:00:12.625Z,91.40
2022-12-04T07:05:14.860Z,82.50
2022-12-04T07:10:16.603Z,98.38
2022-12-04T07:15:18.396Z,91.07
2022-12-04T07:20:20.151Z,91.53
2022-12-04T07:25:21.881Z,100.93
2022-12-04T07:30:23.592Z,94.47
2022-12-04T07:35:25.275Z,97.28
2022-12-04T07:40:26.983Z,95.90
2022-12-04T07:45:28.748Z,98.15
2022-12-04T07:50:30.453Z,94.82
2022-12-04T07:55:32.180Z,89.18
2022-12-04T08:00:33.930Z,95.28
2022-12-04T08:05:35.609Z,97.22
2022-12-04T08:10:40.516Z,99.53
2022-12-04T08:15:42.150Z,97.07
2022-12-04T08:20:44.303Z,97.55
2022-12-04T08:25:46.030Z,99.78
2022-12-04T08:30:47.712Z,103.15
2022-12-04T08:35:49.639Z,98.30
2022-12-04T08:40:51.499Z,91.03
2022-12-04T08:46:05.572Z,100.75
2022-12-04T08:51:08.193Z,108.35
2022-12-04T08:56:10.553Z,95.25
2022-12-04T09:01:14.315Z,88.00
2022-12-04T09:06:16.591Z,100.75
2022-12-04T09:11:20.801Z,102.53
2022-12-04T09:16:24.347Z,102.20
2022-12-04T09:21:26.144Z,95.50
2022-12-04T09:26:30.995Z,97.22
2022-12-04T09:31:33.471Z,100.75
2022-12-04T09:36:35.202Z,111.18
2022-12-04T09:41:36.829Z,102.88
2022-12-04T09:47:01.774Z,100.80
2022-12-04T09:52:23.114Z,101.82
2022-12-04T09:57:35.482Z,99.38
2022-12-04T10:02:39.760Z,107.97
2022-12-04T10:07:54.150Z,104.60
2022-12-04T10:13:11.192Z,96.20
2022-12-04T10:18:24.349Z,111.50
2022-12-04T10:24:09.672Z,112.65
2022-12-04T10:29:24.868Z,108.53
2022-12-04T10:34:30.743Z,97.55
2022-12-04T10:39:49.218Z,102.97
2022-12-04T10:44:51.755Z,98.28
2022-12-04T10:50:00.678Z,106.10
2022-12-04T10:55:02.403Z,101.40
2022-12-04T11:00:24.384Z,95.22
2022-12-04T11:05:35.655Z,97.65
2022-12-04T11:10:39.103Z,91.65
2022-12-04T11:15:46.153Z,93.25
2022-12-04T11:21:00.533Z,90.95
2022-12-04T11:26:06.237Z,103.13
2022-12-04T11:31:10.857Z,94.25
2022-12-04T11:36:29.241Z,93.97
2022-12-04T11:41:32.728Z,94.97
2022-12-04T11:46:34.940Z,93.57
2022-12-04T11:51:57.328Z,92.70
2022-12-04T11:56:58.971Z,95.03
2022-12-04T12:02:18.847Z,91.80
2022-12-04T12:07:23.661Z,87.50
2022-12-04T12:12:51.684Z,93.32
2022-12-04T12:18:25.104Z,96.82
2022-12-04T12:23:48.869Z,97.70
2022-12-04T12:28:53.292Z,97.45
2022-12-04T12:34:00.637Z,92.55
2022-12-04T12:39:11.633Z,95.43
2022-12-04T12:44:27.149Z,85.88
2022-12-04T12:49:55.610Z,97.43
2022-12-04T12:55:13.235Z,103.00
2022-12-04T13:00:17.558Z,95.43
2022-12-04T13:05:27.730Z,104.97
2022-12-04T13:10:37.818Z,103.90
2022-12-04T13:15:45.051Z,99.75
2022-12-04T13:20:55.113Z,100.13
2022-12-04T13:26:16.889Z,96.90
2022-12-04T13:31:20.342Z,93.38
2022-12-04T13:36:49.654Z,101.60
2022-12-04T13:42:00.589Z,97.10
2022-12-04T13:47:08.306Z,86.88
2022-12-04T13:52:40.609Z,99.63
2022-12-04T13:57:53.676Z,101.50
2022-12-04T14:03:03.134Z,114.13
2022-12-04T14:08:08.026Z,91.50
2022-12-04T14:13:23.305Z,100.55
2022-12-04T14:18:30.060Z,96.75
2022-12-04T14:23:38.040Z,93.97
2022-12-04T14:28:42.662Z,91.53
2022-12-04T14:33:57.898Z,92.85
2022-12-04T14:39:09.011Z,97.25
2022-12-04T14:44:29.075Z,98.70
2022-12-04T14:49:37.083Z,97.45
2022-12-04T14:55:07.467Z,100.30
2022-12-04T15:00:18.177Z,106.95
2022-12-04T15:05:30.048Z,99.55
2022-12-04T15:10:53.246Z,104.50
2022-12-04T15:15:55.666Z,113.10
2022-12-04T15:20:59.893Z,95.32
2022-12-04T15:26:06.106Z,105.55
2022-12-04T15:31:16.001Z,104.88
2022-12-04T15:36:42.988Z,105.22
2022-12-04T15:41:44.696Z,103.57
2022-12-04T15:46:46.597Z,103.85
2022-12-04T15:51:48.653Z,107.63
2022-12-04T15:57:05.534Z,103.47
2022-12-04T16:02:24.152Z,95.63
2022-12-04T16:07:28.554Z,91.07
2022-12-04T16:12:31.576Z,100.72
2022-12-04T16:17:34.479Z,106.93
2022-12-04T16:22:36.430Z,96.03
2022-12-04T16:27:38.409Z,98.00
2022-12-04T16:32:40.323Z,98.57
2022-12-04T16:37:42.030Z,98.20
2022-12-04T16:42:44.464Z,102.13
2022-12-04T16:47:47.809Z,93.20
2022-12-04T16:52:49.499Z,98.95
2022-12-04T16:57:51.160Z,99.82
2022-12-04T17:02:53.391Z,105.63
2022-12-04T17:07:55.526Z,111.75
2022-12-04T17:12:57.339Z,95.53
2022-12-04T17:17:59.017Z,115.25
2022-12-04T17:23:00.737Z,106.30
2022-12-04T17:28:02.558Z,104.55
2022-12-04T17:33:05.105Z,109.88
2022-12-04T17:38:06.769Z,102.28
2022-12-04T17:43:08.501Z,98.40
2022-12-04T17:48:10.203Z,102.70
2022-12-04T17:53:11.937Z,114.22
2022-12-04T17:58:13.621Z,106.95
2022-12-04T18:03:15.458Z,127.00
2022-12-04T18:08:17.288Z,114.57
2022-12-04T18:13:19.058Z,123.63
2022-12-04T18:18:20.785Z,110.88
2022-12-04T18:23:22.440Z,121.68
2022-12-04T18:28:24.396Z,118.35
2022-12-04T18:33:26.146Z,123.70
2022-12-04T18:38:30.711Z,119.28
2022-12-04T18:43:37.179Z,118.18
2022-12-04T18:48:40.280Z,122.95
2022-12-04T18:53:42.731Z,112.85
2022-12-04T18:58:46.466Z,111.43
2022-12-04T19:03:48.562Z,107.95
2022-12-04T19:08:50.315Z,125.35
2022-12-04T19:13:52.004Z,119.90
2022-12-04T19:18:53.683Z,119.45
2022-12-04T19:24:00.010Z,120.63
2022-12-04T19:29:02.534Z,128.27
2022-12-04T19:34:06.107Z,126.03
2022-12-04T19:39:07.999Z,125.35
2022-12-04T19:44:46.316Z,125.97
2022-12-04T19:49:31.800Z,114.65
2022-12-04T19:54:33.580Z,116.60
2022-12-04T19:59:38.575Z,112.90
2022-12-04T20:04:43.240Z,120.70
2022-12-04T20:09:52.014Z,115.20
2022-12-04T20:14:54.424Z,128.00
2022-12-04T20:19:56.368Z,118.93
2022-12-04T20:24:58.383Z,123.28
2022-12-04T20:30:02.318Z,126.40
2022-12-04T20:35:04.342Z,130.70
2022-12-04T20:40:08.601Z,115.53
2022-12-04T20:45:11.215Z,130.05
2022-12-04T20:50:13.002Z,121.18
2022-12-04T20:55:14.802Z,123.38
2022-12-04T21:00:17.551Z,112.80
2022-12-04T21:05:19.373Z,125.70
2022-12-04T21:10:21.127Z,106.00
2022-12-04T21:15:41.815Z,114.05
2022-12-04T21:20:43.883Z,121.10
2022-12-04T21:25:45.712Z,122.05
2022-12-04T21:30:47.509Z,113.40
2022-12-04T21:35:49.327Z,118.35
2022-12-04T21:40:51.029Z,120.65
2022-12-04T21:46:09.600Z,123.45
2022-12-04T21:51:26.863Z,115.60
2022-12-04T21:56:33.440Z,105.68
2022-12-04T22:01:35.476Z,108.32
2022-12-04T22:06:37.936Z,109.78
2022-12-04T22:11:41.497Z,110.55
2022-12-04T22:16:43.647Z,116.50
2022-12-04T22:21:45.664Z,112.60
2022-12-04T22:26:47.377Z,106.03
2022-12-04T22:31:49.086Z,112.28
2022-12-04T22:36:50.866Z,113.60
2022-12-04T22:41:52.529Z,114.00
2022-12-04T22:46:54.294Z,110.15
2022-12-04T22:51:56.066Z,98.55
2022-12-04T22:56:57.753Z,103.95
2022-12-04T23:02:00.304Z,112.85
2022-12-04T23:07:02.016Z,115.20
2022-12-04T23:12:04.029Z,109.88
2022-12-04T23:17:05.820Z,110.22
2022-12-04T23:22:07.577Z,102.22
2022-12-04T23:27:09.255Z,104.95
2022-12-04T23:32:10.983Z,114.60
2022-12-04T23:37:12.634Z,114.82
2022-12-04T23:42:14.299Z,108.85
2022-12-04T23:47:16.043Z,111.32
2022-12-04T23:52:17.760Z,109.25
2022-12-04T23:57:19.545Z,93.55
